createdAt,value
2023-02-09T00:03:44.025Z,97.59
2023-02-09T00:08:36.680Z,99.24
2023-02-09T00:13:28.361Z,99.12
2023-02-09T00:18:21.127Z,98.78
2023-02-09T00:23:12.829Z,99.90
2023-02-09T00:28:04.845Z,99.41
2023-02-09T00:32:56.568Z,99.56
2023-02-09T00:37:48.216Z,99.42
2023-02-09T00:42:39.888Z,98.66
2023-02-09T00:47:31.578Z,99.25
2023-02-09T00:52:23.261Z,99.39
2023-02-09T00:57:14.931Z,99.46
2023-02-09T01:02:06.913Z,99.89
2023-02-09T01:06:58.718Z,100.00
2023-02-09T01:11:50.993Z,100.00
2023-02-09T01:16:42.851Z,100.00
2023-02-09T01:21:34.550Z,100.00
2023-02-09T01:26:26.311Z,100.00
2023-02-09T01:31:26.740Z,100.00
2023-02-09T01:36:18.647Z,100.00
2023-02-09T01:41:10.863Z,100.00
2023-02-09T01:46:02.558Z,100.00
2023-02-09T01:51:00.831Z,100.00
2023-02-09T01:56:01.714Z,100.00
2023-02-09T02:00:53.691Z,100.00
2023-02-09T02:05:51.966Z,100.00
2023-02-09T02:10:43.960Z,100.00
2023-02-09T02:16:02.893Z,100.00
2023-02-09T02:21:40.648Z,100.00
2023-02-09T02:27:04.085Z,100.00
2023-02-09T02:32:26.649Z,100.00
2023-02-09T02:37:43.200Z,100.00
2023-02-09T02:42:59.743Z,100.00
2023-02-09T02:48:36.363Z,100.00
2023-02-09T02:53:33.539Z,100.00
2023-02-09T02:58:28.629Z,100.00
2023-02-09T03:03:33.425Z,100.00
2023-02-09T03:08:25.172Z,100.00
2023-02-09T03:13:42.031Z,100.00
2023-02-09T03:19:02.765Z,100.00
2023-02-09T03:24:04.458Z,100.00
2023-02-09T03:28:59.378Z,100.00
2023-02-09T03:33:51.667Z,100.00
2023-02-09T03:38:43.513Z,100.00
2023-02-09T03:43:53.998Z,100.00
2023-02-09T03:48:46.089Z,100.00
2023-02-09T03:53:37.786Z,100.00
2023-02-09T03:58:29.583Z,100.00
2023-02-09T04:03:21.454Z,100.00
2023-02-09T04:08:13.126Z,100.00
2023-02-09T04:13:04.788Z,100.00
2023-02-09T04:17:56.471Z,100.00
2023-02-09T04:22:48.137Z,100.00
2023-02-09T04:27:39.818Z,100.00
2023-02-09T04:32:31.484Z,100.00
2023-02-09T04:37:23.161Z,100.00
2023-02-09T04:42:14.842Z,100.00
2023-02-09T04:47:06.535Z,100.00
2023-02-09T04:51:58.199Z,100.00
2023-02-09T04:57:09.857Z,100.00
2023-02-09T05:02:01.758Z,100.00
2023-02-09T05:06:53.561Z,100.00
2023-02-09T05:11:45.302Z,100.00
2023-02-09T05:16:39.370Z,100.00
2023-02-09T05:21:31.386Z,100.00
2023-02-09T05:26:23.286Z,100.00
2023-02-09T05:31:15.304Z,100.00
2023-02-09T05:36:09.770Z,100.00
2023-02-09T05:41:08.298Z,100.00
2023-02-09T05:46:00.536Z,100.00
2023-02-09T05:50:53.113Z,100.00
2023-02-09T05:55:47.280Z,100.00
2023-02-09T06:00:40.792Z,100.00
2023-02-09T06:05:33.116Z,100.00
2023-02-09T06:10:27.250Z,100.00
2023-02-09T06:20:24.973Z,100.00
2023-02-09T06:25:17.970Z,100.00
2023-02-09T06:30:11.947Z,100.00
2023-02-09T06:35:04.256Z,100.00
2023-02-09T06:39:56.956Z,100.00
2023-02-09T06:44:49.363Z,100.00
2023-02-09T06:49:41.243Z,100.00
2023-02-09T06:54:34.485Z,100.00
2023-02-09T06:59:26.689Z,100.00
2023-02-09T07:04:19.326Z,100.00
2023-02-09T07:09:12.426Z,100.00
2023-02-09T07:14:11.976Z,100.00
2023-02-09T07:19:03.800Z,100.00
2023-02-09T07:23:55.484Z,100.00
2023-02-09T07:28:47.665Z,100.00
2023-02-09T07:33:39.727Z,100.00
2023-02-09T07:38:31.627Z,100.00
2023-02-09T07:43:23.883Z,100.00
2023-02-09T07:48:15.713Z,100.00
2023-02-09T07:53:11.251Z,100.00
2023-02-09T08:13:26.435Z,100.00
2023-02-09T08:18:34.551Z,100.00
2023-02-09T08:28:52.236Z,100.00
2023-02-09T08:39:00.055Z,100.00
2023-02-09T08:43:52.622Z,100.00
2023-02-09T08:48:48.412Z,99.84
2023-02-09T08:58:47.185Z,98.50
2023-02-09T09:03:42.578Z,98.04
2023-02-09T09:08:39.126Z,98.75
2023-02-09T09:13:31.249Z,98.63
2023-02-09T09:18:26.322Z,98.72
2023-02-09T09:23:22.959Z,97.47
2023-02-09T09:28:24.893Z,96.63
2023-02-09T09:38:27.193Z,95.83
2023-02-09T09:48:49.899Z,94.50
2023-02-09T09:53:50.025Z,93.08
2023-02-09T09:58:45.345Z,92.14
2023-02-09T10:03:37.073Z,90.36
2023-02-09T10:08:44.964Z,91.37
2023-02-09T10:13:58.348Z,89.72
2023-02-09T10:24:36.392Z,87.39
2023-02-09T10:29:29.349Z,86.56
2023-02-09T10:34:48.700Z,85.74
2023-02-09T10:39:41.240Z,86.03
2023-02-09T10:44:40.262Z,85.91
2023-02-09T10:49:43.313Z,85.53
2023-02-09T10:54:36.724Z,83.86
2023-02-09T11:04:42.365Z,84.93
2023-02-09T11:09:47.510Z,84.51
2023-02-09T11:20:19.841Z,83.82
2023-02-09T11:25:46.659Z,81.78
2023-02-09T11:31:34.612Z,83.11
2023-02-09T11:37:05.914Z,82.61
2023-02-09T11:53:05.161Z,79.92
2023-02-09T11:58:27.119Z,79.74
2023-02-09T12:08:38.528Z,76.21
2023-02-09T12:14:04.999Z,77.13
2023-02-09T12:29:40.789Z,74.60
2023-02-09T12:40:10.362Z,75.92
2023-02-09T12:55:39.666Z,76.88
2023-02-09T13:00:40.157Z,77.32
2023-02-09T13:05:40.665Z,76.64
2023-02-09T13:10:51.407Z,76.09
2023-02-09T13:16:10.180Z,75.65
2023-02-09T13:21:36.465Z,74.71
2023-02-09T13:32:01.687Z,73.83
2023-02-09T13:37:31.949Z,74.78
2023-02-09T13:42:29.832Z,75.10
2023-02-09T13:47:27.017Z,74.76
2023-02-09T13:57:36.913Z,73.73
2023-02-09T14:02:35.253Z,74.43
2023-02-09T14:07:43.941Z,74.61
2023-02-09T14:13:01.912Z,74.79
2023-02-09T14:18:06.153Z,75.34
2023-02-09T14:23:09.626Z,76.60
2023-02-09T14:28:01.805Z,77.67
2023-02-09T14:32:58.919Z,78.20
2023-02-09T14:37:58.916Z,78.33
2023-02-09T14:43:12.737Z,78.63
2023-02-09T14:58:49.679Z,81.68
2023-02-09T15:03:45.767Z,82.15
2023-02-09T15:08:40.559Z,82.06
2023-02-09T15:18:40.605Z,83.44
2023-02-09T15:23:33.110Z,84.11
2023-02-09T15:28:32.295Z,85.01
2023-02-09T15:33:31.466Z,84.79
2023-02-09T15:43:48.733Z,84.87
2023-02-09T15:48:41.665Z,85.12
2023-02-09T15:53:45.154Z,85.88
2023-02-09T15:58:42.538Z,86.85
2023-02-09T16:03:35.078Z,87.62
2023-02-09T16:08:32.830Z,88.33
2023-02-09T16:13:25.310Z,88.93
2023-02-09T16:18:20.540Z,88.86
2023-02-09T16:23:20.946Z,89.56
2023-02-09T16:33:44.600Z,90.96
2023-02-09T16:38:39.485Z,92.78
2023-02-09T16:43:32.260Z,93.37
2023-02-09T16:48:29.565Z,92.88
2023-02-09T16:53:41.545Z,93.74
2023-02-09T17:24:18.688Z,99.14
2023-02-09T17:29:12.801Z,99.91
2023-02-09T17:34:17.993Z,100.00
2023-02-09T17:39:15.917Z,100.00
2023-02-09T17:44:29.075Z,100.00
2023-02-09T17:49:28.270Z,100.00
2023-02-09T17:54:22.660Z,100.00
2023-02-09T17:59:15.427Z,100.00
2023-02-09T18:04:17.175Z,100.00
2023-02-09T18:09:12.499Z,100.00
2023-02-09T18:14:04.422Z,100.00
2023-02-09T18:18:56.220Z,100.00
2023-02-09T18:23:51.837Z,100.00
2023-02-09T18:28:43.708Z,100.00
2023-02-09T18:33:40.041Z,100.00
2023-02-09T18:38:35.631Z,100.00
2023-02-09T18:43:29.223Z,100.00
2023-02-09T18:48:21.714Z,100.00
2023-02-09T18:53:15.392Z,100.00
2023-02-09T18:58:16.001Z,100.00
2023-02-09T19:03:07.804Z,100.00
2023-02-09T19:13:06.019Z,100.00
2023-02-09T19:17:58.449Z,100.00
2023-02-09T19:22:53.946Z,100.00
2023-02-09T19:27:46.042Z,100.00
2023-02-09T19:32:38.292Z,100.00
2023-02-09T19:37:31.542Z,100.00
2023-02-09T19:42:25.070Z,100.00
2023-02-09T19:47:20.751Z,100.00
2023-02-09T19:52:13.341Z,100.00
2023-02-09T19:57:06.001Z,100.00
2023-02-09T20:01:59.210Z,100.00
2023-02-09T20:06:53.717Z,100.00
2023-02-09T20:16:54.541Z,100.00
2023-02-09T20:21:46.328Z,100.00
2023-02-09T20:31:44.764Z,100.00
2023-02-09T20:36:47.496Z,100.00
2023-02-09T20:41:42.102Z,100.00
2023-02-09T20:46:45.591Z,100.00
2023-02-09T20:51:38.346Z,100.00
2023-02-09T20:56:31.574Z,100.00
2023-02-09T21:01:24.394Z,100.00
2023-02-09T21:06:16.950Z,100.00
2023-02-09T21:11:14.391Z,100.00
2023-02-09T21:16:06.736Z,100.00
2023-02-09T21:21:00.836Z,100.00
2023-02-09T21:26:06.600Z,100.00
2023-02-09T21:30:59.092Z,100.00
2023-02-09T21:35:52.367Z,100.00
2023-02-09T21:40:44.261Z,100.00
2023-02-09T21:50:45.117Z,100.00
2023-02-09T21:55:37.100Z,100.00
2023-02-09T22:00:30.854Z,100.00
2023-02-09T22:05:23.824Z,100.00
2023-02-09T22:10:20.221Z,100.00
2023-02-09T22:15:13.112Z,100.00
2023-02-09T22:20:06.290Z,100.00
2023-02-09T22:24:59.172Z,100.00
2023-02-09T22:29:51.365Z,100.00
2023-02-09T22:34:44.262Z,100.00
2023-02-09T22:39:36.231Z,100.00
2023-02-09T22:44:28.131Z,100.00
2023-02-09T22:49:21.182Z,100.00
2023-02-09T22:54:17.496Z,100.00
2023-02-09T22:59:12.979Z,100.00
2023-02-09T23:04:04.896Z,100.00
2023-02-09T23:09:00.747Z,100.00
2023-02-09T23:14:03.872Z,100.00
2023-02-09T23:19:05.398Z,100.00
2023-02-09T23:23:57.539Z,100.00
2023-02-09T23:28:53.896Z,100.00
2023-02-09T23:33:46.861Z,100.00
2023-02-09T23:38:39.373Z,100.00
2023-02-09T23:43:31.101Z,100.00
2023-02-09T23:48:23.096Z,100.00
2023-02-09T23:53:14.996Z,100.00
2023-02-09T23:58:07.190Z,100.00
